createdAt,value
2023-04-25T00:00:55.906Z,22.6400
2023-04-25T00:01:55.898Z,22.6600
2023-04-25T00:02:58.252Z,22.6300
2023-04-25T00:04:00.595Z,22.6300
2023-04-25T00:05:03.097Z,22.6200
2023-04-25T00:06:04.913Z,22.6100
2023-04-25T00:07:07.218Z,22.5900
2023-04-25T00:08:09.509Z,22.5800
2023-04-25T00:09:11.711Z,22.5800
2023-04-25T00:10:13.967Z,22.5900
2023-04-25T00:11:14.196Z,22.6100
2023-04-25T00:12:16.445Z,22.5900
2023-04-25T00:13:18.748Z,22.5700
2023-04-25T00:14:21.077Z,22.5700
2023-04-25T00:15:23.295Z,22.5600
2023-04-25T00:16:25.646Z,22.5600
2023-04-25T00:17:27.836Z,22.5900
2023-04-25T00:18:27.845Z,22.5800
2023-04-25T00:19:30.100Z,22.5900
2023-04-25T00:20:32.349Z,22.5700
2023-04-25T00:21:34.776Z,22.5400
2023-04-25T00:22:36.862Z,22.5300
2023-04-25T00:23:39.088Z,22.5200
2023-04-25T00:24:41.389Z,22.4900
2023-04-25T00:25:43.621Z,22.4800
2023-04-25T00:26:45.930Z,22.5000
2023-04-25T00:27:46.063Z,22.5100
2023-04-25T00:28:48.295Z,22.4900
2023-04-25T00:29:50.524Z,22.4600
2023-04-25T00:30:52.809Z,22.4600
2023-04-25T00:31:55.157Z,22.4600
2023-04-25T00:32:57.338Z,22.4800
2023-04-25T00:33:59.616Z,22.5000
2023-04-25T00:35:01.822Z,22.5100
2023-04-25T00:36:04.039Z,22.5100
2023-04-25T00:37:06.226Z,22.5000
2023-04-25T00:38:06.319Z,22.4800
2023-04-25T00:39:08.466Z,22.4800
2023-04-25T00:40:10.684Z,22.4600
2023-04-25T00:41:12.940Z,22.4500
2023-04-25T00:42:15.166Z,22.4600
2023-04-25T00:43:17.380Z,22.4900
2023-04-25T00:44:19.753Z,22.4800
2023-04-25T00:45:21.896Z,22.5100
2023-04-25T00:46:24.185Z,22.5400
2023-04-25T00:47:26.379Z,22.5300
2023-04-25T00:48:28.527Z,22.5300
2023-04-25T00:49:28.583Z,22.5200
2023-04-25T00:50:30.833Z,22.5400
2023-04-25T00:51:32.956Z,22.5400
2023-04-25T00:52:35.116Z,22.5300
2023-04-25T00:53:37.285Z,22.5100
2023-04-25T00:54:39.568Z,22.5200
2023-04-25T00:56:22.679Z,22.4800
2023-04-25T00:57:24.831Z,22.5100
2023-04-25T00:58:27.038Z,22.5000
2023-04-25T00:59:29.209Z,22.5000
2023-04-25T01:00:31.469Z,22.4700
2023-04-25T01:01:33.670Z,22.4500
2023-04-25T01:02:36.002Z,22.4600
2023-04-25T01:03:38.287Z,22.4300
2023-04-25T01:04:38.204Z,22.4400
2023-04-25T01:05:40.438Z,22.4500
2023-04-25T01:06:42.652Z,22.4500
2023-04-25T01:07:44.867Z,22.4700
2023-04-25T01:08:47.106Z,22.4700
2023-04-25T01:09:49.298Z,22.4400
2023-04-25T01:10:51.507Z,22.4100
2023-04-25T01:11:53.715Z,22.3900
2023-04-25T01:12:55.904Z,22.3900
2023-04-25T01:13:58.235Z,22.4000
2023-04-25T01:15:00.335Z,22.4400
2023-04-25T01:16:02.493Z,22.4300
2023-04-25T01:17:04.850Z,22.4100
2023-04-25T01:18:07.055Z,22.4000
2023-04-25T01:19:07.047Z,22.4100
2023-04-25T01:20:09.256Z,22.4200
2023-04-25T01:21:11.552Z,22.4300
2023-04-25T01:22:13.781Z,22.4200
2023-04-25T01:23:16.062Z,22.4400
2023-04-25T01:24:18.349Z,22.4400
2023-04-25T01:25:20.643Z,22.4400
2023-04-25T01:26:22.903Z,22.4300
2023-04-25T01:27:23.048Z,22.4300
2023-04-25T01:28:25.332Z,22.4200
2023-04-25T01:29:27.610Z,22.4500
2023-04-25T01:30:29.850Z,22.4200
2023-04-25T01:31:32.105Z,22.4300
2023-04-25T01:32:34.357Z,22.4400
2023-04-25T01:33:36.584Z,22.4400
2023-04-25T01:34:38.856Z,22.4600
2023-04-25T01:35:41.057Z,22.4400
2023-04-25T01:36:41.168Z,22.4100
2023-04-25T01:37:43.466Z,22.4400
2023-04-25T01:38:45.673Z,22.4400
2023-04-25T01:39:47.936Z,22.4100
2023-04-25T01:40:50.188Z,22.3900
2023-04-25T01:41:52.485Z,22.3700
2023-04-25T01:42:54.724Z,22.3900
2023-04-25T01:43:57.007Z,22.4000
2023-04-25T01:44:59.292Z,22.4100
2023-04-25T01:45:59.456Z,22.4200
2023-04-25T01:47:01.679Z,22.4100
2023-04-25T01:48:04.009Z,22.4100
2023-04-25T01:49:06.237Z,22.4100
2023-04-25T01:50:08.578Z,22.3700
2023-04-25T01:51:10.810Z,22.3400
2023-04-25T01:52:13.098Z,22.3300
2023-04-25T01:53:13.209Z,22.3300
2023-04-25T01:54:15.487Z,22.3200
2023-04-25T01:55:17.790Z,22.2800
2023-04-25T01:56:19.989Z,22.2800
2023-04-25T01:57:22.223Z,22.3100
2023-04-25T01:58:24.510Z,22.2900
2023-04-25T01:59:26.796Z,22.2900
2023-04-25T02:00:29.124Z,22.3000
2023-04-25T02:01:31.398Z,22.3100
2023-04-25T02:02:33.678Z,22.3100
2023-04-25T02:03:36.077Z,22.3100
2023-04-25T02:04:38.302Z,22.3200
2023-04-25T02:05:40.417Z,22.3300
2023-04-25T02:06:42.633Z,22.3400
2023-04-25T02:07:44.886Z,22.3400
2023-04-25T02:08:47.147Z,22.3600
2023-04-25T02:09:47.249Z,22.3200
2023-04-25T02:10:49.606Z,22.2900
2023-04-25T02:11:51.673Z,22.2800
2023-04-25T02:12:53.902Z,22.2700
2023-04-25T02:13:56.126Z,22.2600
2023-04-25T02:14:58.299Z,22.3000
2023-04-25T02:16:00.635Z,22.2800
2023-04-25T02:17:35.397Z,22.2400
2023-04-25T02:18:37.462Z,22.2300
2023-04-25T02:19:38.554Z,22.2100
2023-04-25T07:15:57.514Z,21.7400
2023-04-25T07:16:59.505Z,21.8100
2023-04-25T07:18:01.690Z,21.8800
2023-04-25T07:19:03.883Z,21.9000
2023-04-25T07:20:06.081Z,21.9300
2023-04-25T07:21:08.385Z,21.9300
2023-04-25T07:22:10.611Z,21.9300
2023-04-25T07:23:12.856Z,21.9500
2023-04-25T07:24:15.067Z,21.9500
2023-04-25T07:25:17.309Z,21.9300
2023-04-25T07:26:19.552Z,21.9100
2023-04-25T07:27:19.658Z,21.9400
2023-04-25T07:28:21.937Z,21.9300
2023-04-25T07:29:24.212Z,21.9300
2023-04-25T07:30:26.481Z,21.9500
2023-04-25T07:31:28.883Z,21.9400
2023-04-25T07:32:31.095Z,21.9600
2023-04-25T07:33:31.182Z,21.9500
2023-04-25T07:34:33.456Z,21.9600
2023-04-25T07:35:35.688Z,21.9500
2023-04-25T07:36:37.944Z,21.9600
2023-04-25T07:37:40.125Z,21.9700
2023-04-25T07:38:42.396Z,21.9800
2023-04-25T07:39:44.668Z,21.9600
2023-04-25T07:40:46.947Z,21.9600
2023-04-25T07:41:49.225Z,21.9600
2023-04-25T07:42:49.337Z,21.9500
2023-04-25T07:43:51.608Z,21.9500
2023-04-25T07:44:53.876Z,21.9600
2023-04-25T07:45:56.199Z,21.9600
2023-04-25T07:46:58.447Z,21.9600
2023-04-25T07:48:00.713Z,21.9500
2023-04-25T07:49:00.812Z,21.9500
2023-04-25T07:50:03.114Z,21.9700
2023-04-25T07:51:05.362Z,21.9900
2023-04-25T07:52:07.686Z,22.0000
2023-04-25T07:53:09.858Z,22.0000
2023-04-25T07:54:12.087Z,22.0100
2023-04-25T07:55:14.368Z,22.0400
2023-04-25T07:56:16.665Z,22.0100
2023-04-25T07:57:18.926Z,22.0300
2023-04-25T07:58:21.224Z,22.0400
2023-04-25T07:59:21.334Z,22.0400
2023-04-25T08:00:23.636Z,22.0600
2023-04-25T08:01:25.905Z,22.0900
2023-04-25T08:02:28.279Z,22.0900
2023-04-25T08:03:30.703Z,22.0900
2023-04-25T08:04:33.055Z,22.0900
2023-04-25T08:05:35.110Z,22.0900
2023-04-25T08:06:35.619Z,22.1000
2023-04-25T08:07:37.443Z,22.0900
2023-04-25T08:08:39.706Z,22.0900
2023-04-25T08:09:41.972Z,22.0700
2023-04-25T08:10:44.242Z,22.1000
2023-04-25T08:11:46.529Z,22.1100
2023-04-25T08:12:48.813Z,22.1300
2023-04-25T08:13:51.037Z,22.1300
2023-04-25T08:14:53.293Z,22.1500
2023-04-25T08:15:53.444Z,22.1400
2023-04-25T08:16:55.626Z,22.1800
2023-04-25T08:17:57.926Z,22.1700
2023-04-25T08:19:00.184Z,22.1600
2023-04-25T08:20:02.362Z,22.1400
2023-04-25T08:21:04.569Z,22.1400
2023-04-25T08:22:06.845Z,22.1400
2023-04-25T08:23:09.166Z,22.1400
2023-04-25T08:24:09.292Z,22.1200
2023-04-25T08:25:11.556Z,22.1000
2023-04-25T08:26:13.776Z,22.1200
2023-04-25T08:27:16.021Z,22.1100
2023-04-25T08:28:18.275Z,22.1100
2023-04-25T08:29:20.507Z,22.1000
2023-04-25T08:30:22.850Z,22.1000
2023-04-25T08:31:24.948Z,22.1100
2023-04-25T08:32:29.644Z,22.1000
2023-04-25T08:33:29.386Z,22.0700
2023-04-25T08:34:31.582Z,22.0900
2023-04-25T08:35:33.811Z,22.1100
2023-04-25T08:36:39.418Z,22.1100
2023-04-25T08:37:36.116Z,22.0900
2023-04-25T08:38:38.360Z,22.1000
2023-04-25T08:39:40.608Z,22.1200
2023-04-25T08:40:42.818Z,22.1000
2023-04-25T08:41:45.066Z,22.1300
2023-04-25T08:42:47.320Z,22.1500
2023-04-25T08:43:49.588Z,22.1400
2023-04-25T08:44:51.770Z,22.1100
2023-04-25T08:45:53.970Z,22.1000
2023-04-25T08:46:56.221Z,22.0900
2023-04-25T08:47:58.481Z,22.0900
2023-04-25T08:48:58.972Z,22.0900
2023-04-25T08:50:00.714Z,22.0800
2023-04-25T08:51:02.938Z,22.0600
2023-04-25T08:52:05.163Z,22.0800
2023-04-25T08:53:07.408Z,22.1100
2023-04-25T08:54:19.130Z,22.1100
2023-04-25T08:55:11.888Z,22.1000
2023-04-25T08:56:14.092Z,22.0700
2023-04-25T08:57:16.331Z,22.0800
2023-04-25T08:58:18.567Z,22.0700
2023-04-25T08:59:18.686Z,22.0600
2023-04-25T09:00:20.884Z,22.0400
2023-04-25T09:01:23.237Z,22.0600
2023-04-25T09:02:25.417Z,22.0600
2023-04-25T09:03:27.860Z,22.0500
2023-04-25T09:04:29.902Z,22.0500
2023-04-25T09:05:32.053Z,22.0500
2023-04-25T09:06:34.258Z,22.0500
2023-04-25T09:07:36.473Z,22.0700
2023-04-25T09:08:38.697Z,22.0500
2023-04-25T09:09:41.028Z,22.0200
2023-04-25T09:10:43.232Z,22.0200
2023-04-25T09:11:43.352Z,22.0200
2023-04-25T09:12:45.538Z,22.0100
2023-04-25T09:13:47.770Z,22.0100
2023-04-25T09:14:50.042Z,22.0200
2023-04-25T09:15:52.263Z,22.0000
2023-04-25T09:17:37.605Z,21.9900
2023-04-25T09:18:39.716Z,22.0100
2023-04-25T09:19:42.446Z,22.0200
2023-04-25T09:21:46.725Z,22.0300
2023-04-25T09:22:48.663Z,22.0400
2023-04-25T09:23:51.041Z,22.0300
2023-04-25T09:24:50.949Z,22.0600
2023-04-25T09:25:53.183Z,22.1000
2023-04-25T09:26:55.328Z,22.1700
2023-04-25T09:27:57.582Z,22.2000
2023-04-25T09:28:59.734Z,22.2500
2023-04-25T09:30:01.891Z,22.2600
2023-04-25T09:31:04.094Z,22.2500
2023-04-25T09:32:05.207Z,22.1600
2023-04-25T09:33:07.373Z,22.0700
2023-04-25T09:34:09.581Z,22.0100
2023-04-25T09:35:11.881Z,21.9600
2023-04-25T09:36:14.101Z,21.9200
2023-04-25T09:37:16.306Z,21.9200
2023-04-25T09:38:18.605Z,21.9200
2023-04-25T09:39:20.878Z,21.9200
2023-04-25T09:40:23.171Z,21.9400
2023-04-25T09:41:23.266Z,21.9300
2023-04-25T09:42:25.420Z,21.9600
2023-04-25T09:43:27.656Z,21.9600
2023-04-25T09:44:29.880Z,22.0000
2023-04-25T09:45:32.063Z,22.0300
2023-04-25T09:46:32.263Z,22.0700
2023-04-25T09:47:34.451Z,22.0600
2023-04-25T09:48:36.574Z,22.0600
2023-04-25T09:49:38.768Z,22.0300
2023-04-25T09:50:40.980Z,22.0100
2023-04-25T09:51:43.169Z,22.0000
2023-04-25T09:52:45.372Z,22.0100
2023-04-25T09:53:47.562Z,21.9900
2023-04-25T09:54:49.741Z,21.9700
2023-04-25T09:55:51.922Z,21.9800
2023-04-25T09:56:54.079Z,22.0100
2023-04-25T09:57:56.230Z,22.0500
2023-04-25T09:58:58.431Z,22.0600
2023-04-25T10:00:00.643Z,22.0900
2023-04-25T10:01:02.853Z,22.1000
2023-04-25T10:02:05.044Z,22.1200
2023-04-25T10:03:07.369Z,22.1200
2023-04-25T10:04:09.511Z,22.1100
2023-04-25T10:05:11.876Z,22.1000
2023-04-25T10:06:13.862Z,22.1000
2023-04-25T10:07:13.880Z,22.1200
2023-04-25T10:08:16.073Z,22.1400
2023-04-25T10:09:18.296Z,22.1500
2023-04-25T10:10:20.533Z,22.1700
2023-04-25T10:11:22.741Z,22.1700
2023-04-25T10:12:24.948Z,22.1700
2023-04-25T10:13:27.113Z,22.2000
2023-04-25T10:14:29.347Z,22.2300
2023-04-25T10:15:31.680Z,22.2500
2023-04-25T10:16:33.761Z,22.2500
2023-04-25T10:17:35.974Z,22.2500
2023-04-25T10:18:38.163Z,22.2600
2023-04-25T10:19:40.345Z,22.2700
2023-04-25T10:20:42.576Z,22.2500
2023-04-25T10:21:42.687Z,22.2400
2023-04-25T10:22:45.019Z,22.2400
2023-04-25T10:23:47.138Z,22.2700
2023-04-25T10:24:49.393Z,22.2500
2023-04-25T10:25:51.677Z,22.2500
2023-04-25T10:26:53.945Z,22.2600
2023-04-25T10:27:56.210Z,22.2700
2023-04-25T10:28:58.498Z,22.2900
2023-04-25T10:29:58.623Z,22.3000
2023-04-25T10:31:01.018Z,22.3000
2023-04-25T10:32:03.183Z,22.3100
2023-04-25T10:33:05.461Z,22.3200
2023-04-25T10:34:05.542Z,22.3300
2023-04-25T10:35:07.799Z,22.3400
2023-04-25T10:36:10.068Z,22.3500
2023-04-25T10:37:12.440Z,22.3700
2023-04-25T10:38:14.555Z,22.3300
2023-04-25T10:39:16.806Z,22.2600
2023-04-25T10:40:19.056Z,22.2200
2023-04-25T10:41:21.381Z,22.0900
2023-04-25T10:42:21.447Z,21.9800
2023-04-25T10:43:23.753Z,21.9300
2023-04-25T10:44:25.934Z,21.9900
2023-04-25T10:45:28.200Z,21.9900
2023-04-25T10:46:30.478Z,22.0200
2023-04-25T10:47:32.731Z,22.0500
2023-04-25T10:48:34.964Z,22.1000
2023-04-25T10:49:37.183Z,22.1400
2023-04-25T10:50:39.400Z,22.1300
2023-04-25T10:51:55.114Z,22.1200
2023-04-25T10:53:38.447Z,22.1800
2023-04-25T10:54:40.425Z,22.2600
2023-04-25T10:55:42.718Z,22.2600
2023-04-25T10:56:44.987Z,22.3100
2023-04-25T10:57:47.302Z,22.3500
2023-04-25T10:58:51.265Z,22.3900
2023-04-25T10:59:51.736Z,22.4000
2023-04-25T11:00:57.581Z,22.4000
2023-04-25T11:01:54.239Z,22.4000
2023-04-25T11:02:56.516Z,22.3800
2023-04-25T11:03:58.889Z,22.3700
2023-04-25T11:05:00.868Z,22.3100
2023-04-25T11:06:02.009Z,22.3000
2023-04-25T11:07:06.941Z,22.2000
2023-04-25T11:08:08.189Z,22.1300
2023-04-25T11:09:06.747Z,22.1100
2023-04-25T11:10:08.982Z,22.0800
2023-04-25T11:11:11.193Z,22.0900
2023-04-25T11:12:13.446Z,22.1600
2023-04-25T11:13:15.664Z,22.2300
2023-04-25T11:14:17.943Z,22.2900
2023-04-25T11:15:20.187Z,22.3500
2023-04-25T11:16:27.501Z,22.4100
2023-04-25T11:17:22.613Z,22.4400
2023-04-25T11:18:24.924Z,22.4800
2023-04-25T11:19:27.090Z,22.5700
2023-04-25T11:20:29.329Z,22.6400
2023-04-25T11:21:31.582Z,22.7000
2023-04-25T11:22:33.830Z,22.7200
2023-04-25T11:23:35.994Z,22.7700
2023-04-25T11:24:38.362Z,22.7700
2023-04-25T11:25:40.502Z,22.7600
2023-04-25T11:26:42.622Z,22.7500
2023-04-25T11:27:44.814Z,22.7000
2023-04-25T11:28:47.022Z,22.7200
2023-04-25T11:29:47.100Z,22.7300
2023-04-25T11:30:49.318Z,22.7100
2023-04-25T11:31:51.683Z,22.7500
2023-04-25T11:32:53.916Z,22.7700
2023-04-25T11:33:56.107Z,22.7800
2023-04-25T11:34:58.391Z,22.8200
2023-04-25T11:36:00.579Z,22.8200
2023-04-25T11:37:03.277Z,22.8000
2023-04-25T11:38:05.017Z,22.7400
2023-04-25T11:39:07.246Z,22.7200
2023-04-25T11:40:09.531Z,22.6900
2023-04-25T11:41:11.711Z,22.6800
2023-04-25T11:42:14.313Z,22.6500
2023-04-25T11:43:13.964Z,22.6200
2023-04-25T11:44:16.183Z,22.6000
2023-04-25T11:45:18.418Z,22.6100
2023-04-25T11:46:20.609Z,22.6000
2023-04-25T11:47:22.842Z,22.5900
2023-04-25T11:48:25.944Z,22.6200
2023-04-25T11:49:25.113Z,22.6400
2023-04-25T11:50:27.367Z,22.6600
2023-04-25T11:51:29.559Z,22.6600
2023-04-25T11:52:31.777Z,22.6800
2023-04-25T11:53:31.965Z,22.7000
2023-04-25T11:54:34.057Z,22.6900
2023-04-25T11:55:36.326Z,22.7200
2023-04-25T11:56:38.572Z,22.7200
2023-04-25T11:57:40.798Z,22.7200
2023-04-25T11:58:43.011Z,22.7600
2023-04-25T11:59:45.285Z,22.8000
2023-04-25T12:00:50.212Z,22.8000
2023-04-25T12:01:49.820Z,22.8100
2023-04-25T12:02:52.155Z,22.8300
2023-04-25T12:03:54.518Z,22.8300
2023-04-25T12:04:57.914Z,22.8400
2023-04-25T12:05:56.889Z,22.8200
2023-04-25T12:06:58.916Z,22.8300
2023-04-25T12:08:01.158Z,22.8300
2023-04-25T12:09:03.465Z,22.8000
2023-04-25T12:10:03.575Z,22.7700
2023-04-25T12:11:05.877Z,22.7900
2023-04-25T12:12:08.063Z,22.8200
2023-04-25T12:13:10.323Z,22.8300
2023-04-25T12:14:12.622Z,22.7700
2023-04-25T12:15:14.892Z,22.7800
2023-04-25T12:16:17.555Z,22.7800
2023-04-25T12:17:19.433Z,22.7800
2023-04-25T12:18:19.560Z,22.7800
2023-04-25T12:19:21.738Z,22.8000
2023-04-25T12:20:23.966Z,22.8300
2023-04-25T12:21:26.309Z,22.7900
2023-04-25T12:22:28.433Z,22.7700
2023-04-25T12:23:30.659Z,22.7800
2023-04-25T12:24:32.902Z,22.8100
2023-04-25T12:25:35.121Z,22.8100
2023-04-25T12:26:37.458Z,22.8200
2023-04-25T12:27:39.674Z,22.8500
2023-04-25T12:28:41.973Z,22.8800
2023-04-25T12:29:49.814Z,22.9200
2023-04-25T12:30:44.410Z,22.9800
2023-04-25T12:31:46.829Z,23.0600
2023-04-25T12:32:48.989Z,23.1300
2023-04-25T12:33:51.205Z,23.1700
2023-04-25T12:36:05.112Z,23.3500
2023-04-25T12:37:06.607Z,23.2900
2023-04-25T12:38:08.783Z,23.2000
2023-04-25T12:39:11.003Z,23.2000
2023-04-25T12:40:13.222Z,23.2400
2023-04-25T12:41:15.467Z,23.3200
2023-04-25T12:42:17.745Z,23.4000
2023-04-25T12:43:19.917Z,23.4400
2023-04-25T12:44:20.005Z,23.5300
2023-04-25T12:45:22.196Z,23.5300
2023-04-25T12:46:24.433Z,23.5300
2023-04-25T12:47:26.684Z,23.5900
2023-04-25T12:48:28.856Z,23.6000
2023-04-25T12:49:31.019Z,23.6600
2023-04-25T12:50:33.224Z,23.7300
2023-04-25T12:51:35.496Z,23.7400
2023-04-25T12:52:37.735Z,23.7500
2023-04-25T12:53:39.969Z,23.7300
2023-04-25T12:54:42.204Z,23.7100
2023-04-25T12:55:42.326Z,23.6900
2023-04-25T12:56:44.530Z,23.6800
2023-04-25T12:57:46.845Z,23.7300
2023-04-25T12:58:49.474Z,23.7400
2023-04-25T12:59:51.291Z,23.7400
2023-04-25T13:00:53.642Z,23.7500
2023-04-25T13:01:55.756Z,23.7700
2023-04-25T13:02:58.145Z,23.7900
2023-04-25T13:04:00.262Z,23.8700
2023-04-25T13:05:02.454Z,23.9300
2023-04-25T13:06:04.622Z,24.0000
2023-04-25T13:07:06.817Z,24.0300
2023-04-25T13:08:06.920Z,23.9900
2023-04-25T13:09:09.092Z,23.9800
2023-04-25T13:10:11.310Z,23.9800
2023-04-25T13:11:13.523Z,24.0000
2023-04-25T13:12:15.700Z,23.9800
2023-04-25T13:13:17.934Z,23.9600
2023-04-25T13:14:20.074Z,23.9200
2023-04-25T13:15:22.259Z,23.8600
2023-04-25T13:16:24.518Z,23.8000
2023-04-25T13:17:27.568Z,23.7600
2023-04-25T13:18:26.773Z,23.7100
2023-04-25T13:19:28.902Z,23.6500
2023-04-25T13:20:31.052Z,23.6100
2023-04-25T13:21:33.440Z,23.5900
2023-04-25T13:22:35.475Z,23.5400
2023-04-25T13:23:37.628Z,23.4900
2023-04-25T13:24:39.786Z,23.4600
2023-04-25T13:25:42.014Z,23.4700
2023-04-25T13:26:44.249Z,23.4600
2023-04-25T13:27:44.355Z,23.4600
2023-04-25T13:28:46.680Z,23.4500
2023-04-25T13:29:48.843Z,23.4200
2023-04-25T13:30:51.071Z,23.3900
2023-04-25T13:31:53.316Z,23.3800
2023-04-25T13:32:55.534Z,23.3700
2023-04-25T13:33:57.724Z,23.3400
2023-04-25T13:34:59.890Z,23.3400
2023-04-25T13:36:02.112Z,23.3200
2023-04-25T13:37:04.309Z,23.3300
2023-04-25T13:38:06.542Z,23.3400
2023-04-25T13:39:08.756Z,23.3500
2023-04-25T13:40:11.177Z,23.3500
2023-04-25T13:41:11.015Z,23.3400
2023-04-25T13:42:13.254Z,23.3300
2023-04-25T13:43:15.447Z,23.3500
2023-04-25T13:44:17.676Z,23.3500
2023-04-25T13:45:19.810Z,23.3800
2023-04-25T13:46:41.013Z,23.4200
2023-04-25T13:47:24.085Z,23.4000
2023-04-25T13:48:26.145Z,23.4300
2023-04-25T13:49:28.427Z,23.5200
2023-04-25T13:50:30.515Z,23.5800
2023-04-25T13:51:32.787Z,23.6300
2023-04-25T13:52:34.844Z,23.7300
2023-04-25T13:53:37.005Z,23.8600
2023-04-25T13:54:39.296Z,23.9500
2023-04-25T13:55:41.346Z,24.0200
2023-04-25T13:56:43.625Z,24.1500
2023-04-25T13:57:45.697Z,24.3600
2023-04-25T13:58:47.920Z,24.5800
2023-04-25T13:59:50.145Z,24.7600
2023-04-25T14:00:52.248Z,24.8900
2023-04-25T14:01:54.484Z,25.0800
2023-04-25T14:02:56.464Z,25.2300
2023-04-25T14:03:56.458Z,25.4600
2023-04-25T14:04:58.668Z,25.9300
2023-04-25T14:06:00.629Z,26.2600
2023-04-25T14:07:02.781Z,26.0600
2023-04-25T14:08:04.959Z,25.9700
2023-04-25T14:09:07.153Z,26.1000
2023-04-25T14:10:09.338Z,26.2800
2023-04-25T14:11:11.487Z,26.9200
2023-04-25T14:12:13.657Z,28.2200
2023-04-25T14:13:15.854Z,27.6700
2023-04-25T14:14:18.037Z,26.9700
2023-04-25T14:15:20.275Z,26.4500
2023-04-25T14:16:22.455Z,26.1300
2023-04-25T14:17:24.622Z,25.9700
2023-04-25T14:18:26.926Z,25.9400
2023-04-25T14:19:28.966Z,26.0400
2023-04-25T14:20:31.082Z,26.5200
2023-04-25T14:21:33.145Z,26.6000
2023-04-25T14:22:35.243Z,27.0200
2023-04-25T14:23:37.369Z,27.4500
2023-04-25T14:24:39.457Z,28.4000
2023-04-25T14:25:41.530Z,29.6400
2023-04-25T14:26:43.592Z,29.7400
2023-04-25T14:27:45.715Z,28.6800
2023-04-25T14:28:47.838Z,27.9400
2023-04-25T14:29:49.941Z,27.8700
2023-04-25T14:30:52.310Z,27.6900
2023-04-25T14:31:54.378Z,27.1200
2023-04-25T14:32:56.498Z,26.8200
2023-04-25T14:33:59.766Z,26.5400
2023-04-25T14:35:00.807Z,26.5000
2023-04-25T14:36:02.988Z,26.6100
2023-04-25T14:37:05.135Z,27.5900
2023-04-25T14:38:07.294Z,27.6300
2023-04-25T14:39:07.308Z,27.4300
2023-04-25T14:40:09.409Z,27.1800
2023-04-25T14:41:11.586Z,26.8800
2023-04-25T14:42:13.746Z,26.6700
2023-04-25T14:43:15.899Z,26.4400
2023-04-25T14:44:18.074Z,26.2700
2023-04-25T14:45:20.250Z,26.1400
2023-04-25T14:47:27.017Z,25.9800
2023-04-25T14:48:28.959Z,25.9200
2023-04-25T14:49:31.067Z,25.8400
2023-04-25T14:50:33.232Z,25.8200
2023-04-25T14:51:35.404Z,25.7800
2023-04-25T14:52:37.636Z,25.8500
2023-04-25T14:53:39.744Z,25.9100
2023-04-25T14:54:41.951Z,25.9700
2023-04-25T14:55:44.067Z,25.9400
2023-04-25T14:56:46.247Z,25.8500
2023-04-25T14:57:48.440Z,25.8200
2023-04-25T14:58:50.531Z,25.7900
2023-04-25T14:59:52.699Z,25.7600
2023-04-25T15:00:54.882Z,25.6800
2023-04-25T15:01:59.456Z,25.6900
2023-04-25T15:02:59.600Z,25.5800
2023-04-25T15:04:01.623Z,25.5900
2023-04-25T15:05:03.724Z,25.5400
2023-04-25T15:06:05.845Z,25.4900
2023-04-25T15:07:08.025Z,25.4000
2023-04-25T15:08:10.277Z,25.3700
2023-04-25T15:09:12.443Z,25.3300
2023-04-25T15:10:14.645Z,25.2700
2023-04-25T15:11:16.789Z,25.2200
2023-04-25T15:12:18.954Z,25.2500
2023-04-25T15:13:21.184Z,25.2700
2023-04-25T15:14:23.204Z,25.3100
2023-04-25T15:15:26.779Z,25.2900
2023-04-25T15:16:27.569Z,25.2500
2023-04-25T15:17:29.592Z,25.2700
2023-04-25T15:18:31.855Z,25.3000
2023-04-25T15:19:33.903Z,25.2600
2023-04-25T15:20:36.091Z,25.2400
2023-04-25T15:21:38.180Z,25.2100
2023-04-25T15:22:38.177Z,25.1800
2023-04-25T15:23:40.291Z,25.1700
2023-04-25T15:24:42.391Z,25.1600
2023-04-25T15:25:44.516Z,25.0800
2023-04-25T15:26:46.650Z,25.0400
2023-04-25T15:27:48.781Z,25.0500
2023-04-25T15:28:50.938Z,25.0100
2023-04-25T15:29:53.063Z,24.9800
2023-04-25T15:30:55.180Z,24.9700
2023-04-25T15:31:57.286Z,24.9400
2023-04-25T15:32:59.365Z,24.8800
2023-04-25T15:34:01.454Z,24.8400
2023-04-25T15:35:03.469Z,24.7800
2023-04-25T15:36:05.504Z,24.7300
2023-04-25T15:37:07.552Z,24.6900
2023-04-25T15:38:09.641Z,24.6200
2023-04-25T15:39:11.784Z,24.5800
2023-04-25T15:40:11.722Z,24.5400
2023-04-25T15:41:13.975Z,24.5100
2023-04-25T15:42:16.219Z,24.4800
2023-04-25T15:43:18.481Z,24.4500
2023-04-25T15:44:20.773Z,24.4000
2023-04-25T15:45:23.000Z,24.3700
2023-04-25T15:46:25.269Z,24.3300
2023-04-25T15:47:27.473Z,24.3100
2023-04-25T15:48:29.656Z,24.2800
2023-04-25T15:49:31.898Z,24.2600
2023-04-25T15:50:34.017Z,24.2200
2023-04-25T15:51:36.192Z,24.2200
2023-04-25T15:52:38.349Z,24.2200
2023-04-25T15:53:38.400Z,24.2200
2023-04-25T15:54:40.629Z,24.2400
2023-04-25T15:56:53.612Z,24.2000
2023-04-25T15:57:55.695Z,24.2400
2023-04-25T15:58:57.769Z,24.2800
2023-04-25T16:00:00.008Z,24.3400
2023-04-25T16:01:02.138Z,24.3700
2023-04-25T16:02:04.156Z,24.4300
2023-04-25T16:03:06.498Z,24.4600
2023-04-25T16:04:08.539Z,24.4800
2023-04-25T16:05:10.851Z,24.5000
2023-04-25T16:06:12.771Z,24.5300
2023-04-25T16:07:14.892Z,24.5600
2023-04-25T16:08:14.854Z,24.5900
2023-04-25T16:09:16.995Z,24.6200
2023-04-25T16:10:19.184Z,24.6200
2023-04-25T16:11:21.310Z,24.6400
2023-04-25T16:12:23.485Z,24.6200
2023-04-25T16:13:25.663Z,24.6100
2023-04-25T16:14:27.792Z,24.6000
2023-04-25T16:15:31.635Z,24.5900
2023-04-25T16:16:32.188Z,24.6100
2023-04-25T16:17:34.392Z,24.5900
2023-04-25T16:18:36.433Z,24.6300
2023-04-25T16:19:38.608Z,24.7500
2023-04-25T16:20:40.901Z,24.9900
2023-04-25T16:21:42.853Z,25.2900
2023-04-25T16:22:44.996Z,25.4000
2023-04-25T16:23:47.172Z,25.6600
2023-04-25T16:24:49.306Z,25.8600
2023-04-25T16:25:51.532Z,25.9200
2023-04-25T16:26:53.699Z,25.9700
2023-04-25T16:27:55.898Z,26.1300
2023-04-25T16:28:58.083Z,26.2900
2023-04-25T16:30:00.276Z,26.4200
2023-04-25T16:31:02.526Z,26.4000
2023-04-25T16:32:04.760Z,26.3300
2023-04-25T16:33:06.996Z,26.1800
2023-04-25T16:34:09.085Z,26.0200
2023-04-25T16:35:12.133Z,25.8900
2023-04-25T16:36:13.489Z,25.7300
2023-04-25T16:37:13.511Z,25.6200
2023-04-25T16:38:15.727Z,25.5100
2023-04-25T16:39:17.974Z,25.4400
2023-04-25T16:40:20.212Z,25.4200
2023-04-25T16:41:22.561Z,25.3600
2023-04-25T16:42:24.686Z,25.3000
2023-04-25T16:43:26.918Z,25.2300
2023-04-25T16:44:29.161Z,25.1700
2023-04-25T16:45:31.401Z,25.1800
2023-04-25T16:46:33.723Z,25.2000
2023-04-25T16:47:33.742Z,25.2100
2023-04-25T16:48:35.955Z,25.1300
2023-04-25T16:49:38.162Z,25.0900
2023-04-25T16:50:40.383Z,25.0500
2023-04-25T16:51:42.677Z,25.0000
2023-04-25T16:52:44.849Z,24.9600
2023-04-25T16:53:47.026Z,24.9100
2023-04-25T16:54:49.252Z,24.8800
2023-04-25T16:55:51.463Z,24.8400
2023-04-25T16:56:53.667Z,24.8100
2023-04-25T16:57:55.778Z,24.7900
2023-04-25T16:58:57.955Z,24.7800
2023-04-25T17:00:00.159Z,24.7600
2023-04-25T17:01:02.316Z,24.7400
2023-04-25T17:02:04.481Z,24.7300
2023-04-25T17:03:06.819Z,24.7100
2023-04-25T17:04:08.957Z,24.7000
2023-04-25T17:05:11.155Z,24.6800
2023-04-25T17:06:13.355Z,24.6500
2023-04-25T17:07:15.639Z,24.6200
2023-04-25T17:08:17.774Z,24.6000
2023-04-25T17:09:20.010Z,24.5900
2023-04-25T17:10:22.211Z,24.5800
2023-04-25T17:11:24.457Z,24.5700
2023-04-25T17:12:26.768Z,24.5500
2023-04-25T17:13:30.621Z,24.5400
2023-04-25T17:14:31.070Z,24.5100
2023-04-25T17:15:34.516Z,24.4900
2023-04-25T17:16:35.551Z,24.4800
2023-04-25T17:17:37.810Z,24.4400
2023-04-25T17:18:37.868Z,24.4300
2023-04-25T17:19:40.114Z,24.4100
2023-04-25T17:20:42.321Z,24.4000
2023-04-25T17:21:44.585Z,24.3800
2023-04-25T17:22:47.041Z,24.3600
2023-04-25T17:23:49.084Z,24.3400
2023-04-25T17:24:51.350Z,24.3400
2023-04-25T17:25:53.646Z,24.3300
2023-04-25T17:26:55.820Z,24.3300
2023-04-25T17:27:58.094Z,24.3200
2023-04-25T17:29:00.308Z,24.3100
2023-04-25T17:30:02.564Z,24.3100
2023-04-25T17:31:04.852Z,24.2900
2023-04-25T17:32:04.905Z,24.2900
2023-04-25T17:33:07.322Z,24.2600